Time;durP1;ratioP1;P1;durP2;ratioP2;P2;SDS_P1;SDS_P2;PMS_P1;PMS_P2;Temp;Humidity;BMP_temperature;BMP_pressure;BME280_temperature;BME280_humidity;BME280_pressure;Samples;Min_cycle;Max_cycle;Signal;HPM_P1;HPM_P2
2021/12/29 06:56:25;;;;;;;;;;;;;;;5.00;100.00;97617.88;5292866;24;19970;-65
2021/12/29 06:58:52;;;;;;;;;;;;;;;5.04;100.00;97620.66;4917282;29;19949;-65
2021/12/29 07:01:19;;;;;;;;;;;;;;;5.07;100.00;97629.03;4917090;29;20027;-65
2021/12/29 07:03:47;;;;;;;;;;;;;;;5.13;100.00;97629.50;4918782;29;19961;-64
2021/12/29 07:06:14;;;;;;;;;;;;;;;5.21;100.00;97639.47;4924664;29;19974;-64
2021/12/29 07:08:44;;;;;;;;;;;;;;;5.21;100.00;97645.00;4919387;29;19949;-64
2021/12/29 07:11:14;;;;;;;;;;;;;;;5.24;100.00;97638.72;4918174;29;20539;-64
2021/12/29 07:13:42;;;;;;;;;;;;;;;5.32;100.00;97645.94;4910234;29;19951;-64
2021/12/29 07:16:10;;;;;;;;;;;;;;;5.36;100.00;97652.31;4908387;29;19955;-64
2021/12/29 07:18:38;;;;;;;;;;;;;;;5.40;100.00;97660.69;4917303;29;19956;-65
2021/12/29 07:21:05;;;;;;;;;;;;;;;5.42;100.00;97650.81;4919709;29;19949;-64
2021/12/29 07:23:33;;;;;;;;;;;;;;;5.45;100.00;97647.28;4919113;29;19953;-64
2021/12/29 07:26:00;;;;;;;;;;;;;;;5.53;100.00;97662.00;4923916;29;19978;-65
2021/12/29 07:28:27;;;;;;;;;;;;;;;5.56;100.00;97675.09;4919956;29;19952;-64
2021/12/29 07:30:54;;;;;;;;;;;;;;;5.72;100.00;97681.25;4917068;29;19955;-66
2021/12/29 07:33:22;;;;;;;;;;;;;;;5.92;100.00;97679.84;4916074;29;20338;-66
2021/12/29 07:35:49;;;;;;;;;;;;;;;6.04;100.00;97685.13;4918017;29;19952;-67
2021/12/29 07:38:16;;;;;;;;;;;;;;;6.36;100.00;97693.72;4919301;29;19961;-66
2021/12/29 07:40:44;;;;;;;;;;;;;;;6.63;100.00;97691.56;4918610;29;20556;-69
2021/12/29 07:43:12;;;;;;;;;;;;;;;6.83;100.00;97701.19;4921353;29;20343;-69
2021/12/29 07:45:42;;;;;;;;;;;;;;;7.03;100.00;97700.53;4924193;29;19970;-66
2021/12/29 07:48:10;;;;;;;;;;;;;;;7.25;100.00;97702.22;4923708;29;19961;-67
2021/12/29 07:50:38;;;;;;;;;;;;;;;7.50;100.00;97704.31;4923120;29;19950;-67
2021/12/29 07:53:05;;;;;;;;;;;;;;;8.13;100.00;97701.69;4915803;29;20346;-67
2021/12/29 07:55:33;;;;;;;;;;;;;;;9.29;100.00;97709.16;4916093;29;19972;-67
2021/12/29 07:58:00;;;;;;;;;;;;;;;10.64;100.00;97707.16;4927630;29;19955;-65
2021/12/29 08:00:27;;;;;;;;;;;;;;;11.32;100.00;97710.09;4921471;29;20662;-67
2021/12/29 08:02:55;;;;;;;;;;;;;;;13.36;100.00;97712.63;4922945;29;19954;-66
2021/12/29 08:05:22;;;;;;;;;;;;;;;14.43;100.00;97721.19;4917448;29;19967;-66
2021/12/29 08:07:50;;;;;;;;;;;;;;;16.53;100.00;97722.72;4926490;29;19950;-66
2021/12/29 08:10:17;;;;;;;;;;;;;;;18.20;100.00;97731.38;4919101;29;19960;-65
2021/12/29 08:12:45;;;;;;;;;;;;;;;19.10;100.00;97735.88;4916610;29;19979;-65
2021/12/29 08:15:12;;;;;;;;;;;;;;;20.57;97.17;97744.75;4918393;29;19948;-65
2021/12/29 08:17:40;;;;;;;;;;;;;;;21.43;83.55;97736.47;4907703;29;19957;-65
2021/12/29 08:20:08;;;;;;;;;;;;;;;20.82;84.79;97732.19;4922738;29;19947;-65
2021/12/29 08:22:36;;;;;;;;;;;;;;;20.37;84.30;97735.97;4898231;29;19949;-65
2021/12/29 08:25:03;;;;;;;;;;;;;;;19.59;83.58;97730.97;4913331;29;19970;-65
2021/12/29 08:27:31;;;;;;;;;;;;;;;18.52;89.20;97754.88;4914461;29;19953;-65
2021/12/29 08:29:58;;;;;;;;;;;;;;;17.88;91.05;97765.75;4929650;29;20286;-65
2021/12/29 08:32:26;;;;;;;;;;;;;;;16.65;99.09;97739.63;4922759;29;19946;-65
2021/12/29 08:34:54;;;;;;;;;;;;;;;16.14;100.00;97749.28;4918156;29;20526;-65
2021/12/29 08:37:21;;;;;;;;;;;;;;;14.84;100.00;97762.03;4917783;29;19943;-66
2021/12/29 08:39:49;;;;;;;;;;;;;;;14.59;100.00;97765.44;4914289;29;19972;-65
2021/12/29 08:42:16;;;;;;;;;;;;;;;13.33;100.00;97780.06;4913022;29;19950;-65
2021/12/29 08:44:43;;;;;;;;;;;;;;;12.89;100.00;97784.81;4922846;29;19956;-65
2021/12/29 08:47:11;;;;;;;;;;;;;;;13.20;100.00;97790.34;4905192;29;19968;-67
2021/12/29 08:49:38;;;;;;;;;;;;;;;12.54;100.00;97780.53;4905258;29;19946;-65
2021/12/29 08:52:06;;;;;;;;;;;;;;;11.76;100.00;97775.19;4921772;29;19953;-65
2021/12/29 08:54:34;;;;;;;;;;;;;;;11.03;100.00;97779.53;4918041;29;19954;-67
2021/12/29 08:57:02;;;;;;;;;;;;;;;10.42;100.00;97784.81;4910045;29;19972;-67
2021/12/29 08:59:29;;;;;;;;;;;;;;;9.92;100.00;97755.53;4918682;29;20345;-67
2021/12/29 09:01:57;;;;;;;;;;;;;;;9.22;100.00;97776.91;4916750;29;19946;-67
2021/12/29 09:04:24;;;;;;;;;;;;;;;8.66;100.00;97770.56;4914115;29;19947;-67
2021/12/29 09:06:53;;;;;;;;;;;;;;;8.13;100.00;97762.94;4929015;29;19962;-67
2021/12/29 09:09:21;;;;;;;;;;;;;;;8.16;100.00;97764.94;4918948;29;19950;-67
2021/12/29 09:11:48;;;;;;;;;;;;;;;8.14;100.00;97770.13;4917546;29;20435;-67
2021/12/29 09:14:16;;;;;;;;;;;;;;;8.07;100.00;97780.44;4911983;29;19958;-67
2021/12/29 09:16:44;;;;;;;;;;;;;;;7.94;100.00;97786.38;4921866;29;19955;-67
2021/12/29 09:19:13;;;;;;;;;;;;;;;8.10;100.00;97785.19;4921349;29;20252;-67
2021/12/29 09:21:43;;;;;;;;;;;;;;;8.03;100.00;97776.81;4922265;29;19953;-67
2021/12/29 09:24:11;;;;;;;;;;;;;;;7.98;100.00;97789.16;4919617;29;19961;-67
2021/12/29 09:26:38;;;;;;;;;;;;;;;7.95;100.00;97790.72;4916131;29;19971;-67
2021/12/29 09:29:06;;;;;;;;;;;;;;;7.83;100.00;97796.66;4928953;29;19960;-67
2021/12/29 09:31:33;;;;;;;;;;;;;;;7.77;100.00;97806.59;4920726;29;19947;-67
2021/12/29 09:34:01;;;;;;;;;;;;;;;8.20;100.00;97801.94;4906513;29;19956;-67
2021/12/29 09:36:29;;;;;;;;;;;;;;;8.20;100.00;97796.38;4921094;29;20339;-67
2021/12/29 09:38:56;;;;;;;;;;;;;;;8.08;100.00;97788.38;4918093;29;20221;-67
2021/12/29 09:41:24;;;;;;;;;;;;;;;8.01;100.00;97793.94;4921937;29;19950;-67
2021/12/29 09:43:51;;;;;;;;;;;;;;;8.34;100.00;97810.34;4920471;29;20347;-67
2021/12/29 09:46:18;;;;;;;;;;;;;;;8.41;100.00;97796.44;4921241;29;19989;-67
2021/12/29 09:48:47;;;;;;;;;;;;;;;8.38;100.00;97799.22;4921068;29;19950;-67
2021/12/29 09:51:15;;;;;;;;;;;;;;;8.38;100.00;97800.03;4920839;29;19949;-67
2021/12/29 09:53:42;;;;;;;;;;;;;;;8.68;100.00;97810.03;4926741;29;19960;-67
2021/12/29 09:56:10;;;;;;;;;;;;;;;8.82;100.00;97790.50;4927686;29;20277;-67
2021/12/29 09:58:40;;;;;;;;;;;;;;;8.98;100.00;97782.50;4933053;29;20244;-67
2021/12/29 10:01:10;;;;;;;;;;;;;;;8.89;100.00;97793.28;4939245;29;19953;-67
2021/12/29 10:03:38;;;;;;;;;;;;;;;8.86;100.00;97794.06;4934356;29;19950;-67
2021/12/29 10:06:06;;;;;;;;;;;;;;;8.69;100.00;97804.03;4935464;29;19963;-67
2021/12/29 10:08:38;;;;;;;;;;;;;;;8.72;100.00;97802.44;4933708;29;19959;-67
2021/12/29 10:11:08;;;;;;;;;;;;;;;8.67;100.00;97786.91;4919736;29;19949;-67
2021/12/29 10:13:36;;;;;;;;;;;;;;;8.99;100.00;97798.06;4920070;29;19962;-67
2021/12/29 10:16:05;;;;;;;;;;;;;;;9.23;100.00;97786.06;4915893;29;19954;-67
2021/12/29 10:18:34;;;;;;;;;;;;;;;9.20;100.00;97800.81;4919394;29;19946;-66
2021/12/29 10:21:04;;;;;;;;;;;;;;;9.41;100.00;97784.06;4919853;29;19956;-67
2021/12/29 10:23:32;;;;;;;;;;;;;;;9.60;100.00;97783.59;4918902;29;19951;-66
2021/12/29 10:26:04;;;;;;;;;;;;;;;9.80;100.00;97784.72;4918208;29;19969;-66
2021/12/29 10:28:32;;;;;;;;;;;;;;;9.93;100.00;97779.47;4901092;29;19961;-66
2021/12/29 10:31:00;;;;;;;;;;;;;;;9.83;100.00;97802.63;4916761;29;20364;-67
2021/12/29 10:33:47;;;;;;;;;;;;;;;10.17;100.00;97788.97;4923886;29;20362;-67
2021/12/29 10:36:14;;;;;;;;;;;;;;;10.03;100.00;97786.19;4919445;29;19953;-67
2021/12/29 10:38:46;;;;;;;;;;;;;;;9.85;100.00;97781.47;4929861;29;21502;-67
2021/12/29 10:41:14;;;;;;;;;;;;;;;10.01;100.00;97772.66;4932783;29;19962;-67
2021/12/29 10:43:49;;;;;;;;;;;;;;;9.86;100.00;97777.50;4931189;29;19954;-67
2021/12/29 10:46:18;;;;;;;;;;;;;;;10.11;100.00;97768.19;4919474;29;19965;-67
2021/12/29 10:48:46;;;;;;;;;;;;;;;10.32;100.00;97776.50;4920697;29;20246;-67
2021/12/29 10:51:14;;;;;;;;;;;;;;;10.24;100.00;97772.97;4919702;29;19946;-67
2021/12/29 10:53:41;;;;;;;;;;;;;;;10.28;100.00;97778.50;4917135;29;19950;-67
2021/12/29 10:56:19;;;;;;;;;;;;;;;10.34;100.00;97772.06;4918957;29;19966;-67
2021/12/29 10:58:48;;;;;;;;;;;;;;;9.84;100.00;97779.09;4931426;29;19957;-67
2021/12/29 11:01:16;;;;;;;;;;;;;;;9.58;100.00;97763.66;4919650;29;20328;-66
2021/12/29 11:03:48;;;;;;;;;;;;;;;9.31;100.00;97759.75;4918515;29;19958;-67
2021/12/29 11:06:18;;;;;;;;;;;;;;;9.51;100.00;97765.69;4918556;29;19971;-67
2021/12/29 11:08:52;;;;;;;;;;;;;;;9.73;100.00;97764.41;4917497;29;19980;-67
2021/12/29 11:11:24;;;;;;;;;;;;;;;9.48;100.00;97760.91;4918439;29;19959;-67
2021/12/29 11:13:56;;;;;;;;;;;;;;;9.67;100.00;97777.97;4919225;29;19979;-67
2021/12/29 11:16:23;;;;;;;;;;;;;;;9.81;100.00;97777.91;4925530;29;19969;-67
2021/12/29 11:18:51;;;;;;;;;;;;;;;9.85;100.00;97773.09;4918026;29;20356;-67
2021/12/29 11:21:26;;;;;;;;;;;;;;;9.81;100.00;97771.53;4920247;29;19949;-67
2021/12/29 11:23:54;;;;;;;;;;;;;;;9.72;100.00;97771.19;4917106;29;19953;-67
2021/12/29 11:26:28;;;;;;;;;;;;;;;9.89;100.00;97773.91;4918146;29;19966;-67
2021/12/29 11:29:05;;;;;;;;;;;;;;;9.86;100.00;97774.72;4919307;29;19949;-67
2021/12/29 11:31:34;;;;;;;;;;;;;;;9.97;100.00;97771.88;4922909;29;19962;-67
2021/12/29 11:34:18;;;;;;;;;;;;;;;9.93;100.00;97785.03;4918695;29;19973;-67
2021/12/29 11:36:58;;;;;;;;;;;;;;;9.80;100.00;97770.75;4905682;29;19983;-67
2021/12/29 11:39:26;;;;;;;;;;;;;;;9.81;100.00;97769.53;4919107;29;19956;-67
2021/12/29 11:41:53;;;;;;;;;;;;;;;9.83;100.00;97764.34;4919419;29;19981;-67
2021/12/29 11:44:20;;;;;;;;;;;;;;;9.76;100.00;97761.59;4916777;29;19952;-67
2021/12/29 11:46:48;;;;;;;;;;;;;;;9.88;100.00;97761.13;4923702;29;19970;-67
2021/12/29 11:49:15;;;;;;;;;;;;;;;9.82;100.00;97765.56;4917781;29;20238;-67
2021/12/29 11:51:52;;;;;;;;;;;;;;;9.65;100.00;97769.22;4922616;29;20247;-66
2021/12/29 11:54:24;;;;;;;;;;;;;;;9.53;100.00;97758.50;4917482;29;19961;-66
2021/12/29 11:56:51;;;;;;;;;;;;;;;9.59;100.00;97754.06;4918493;29;20384;-67
2021/12/29 11:59:28;;;;;;;;;;;;;;;9.64;100.00;97750.06;4913570;29;20038;-67
2021/12/29 12:02:00;;;;;;;;;;;;;;;9.50;100.00;97750.94;4908259;29;20302;-67
2021/12/29 12:04:28;;;;;;;;;;;;;;;9.54;100.00;97746.13;4922480;29;19959;-67
2021/12/29 12:07:07;;;;;;;;;;;;;;;9.53;100.00;97741.75;4937608;29;19969;-67
2021/12/29 12:09:45;;;;;;;;;;;;;;;9.58;100.00;97751.69;4937324;29;19947;-67
2021/12/29 12:12:12;;;;;;;;;;;;;;;9.48;100.00;97752.53;4917873;29;19953;-67
2021/12/29 12:14:45;;;;;;;;;;;;;;;9.53;100.00;97761.28;4907533;29;19957;-67
2021/12/29 12:17:14;;;;;;;;;;;;;;;9.54;100.00;97750.91;4918888;29;20343;-67
2021/12/29 12:19:42;;;;;;;;;;;;;;;9.57;100.00;97744.50;4918618;29;19957;-67
2021/12/29 12:22:11;;;;;;;;;;;;;;;9.61;100.00;97743.28;4917766;29;19951;-67
2021/12/29 12:24:55;;;;;;;;;;;;;;;9.70;100.00;97740.09;4931638;29;19979;-67
2021/12/29 12:27:31;;;;;;;;;;;;;;;9.62;100.00;97744.09;4935869;29;19968;-67
2021/12/29 12:30:00;;;;;;;;;;;;;;;9.34;100.00;97742.19;4917955;29;19955;-67
2021/12/29 12:32:27;;;;;;;;;;;;;;;9.37;100.00;97735.81;4918316;29;19950;-67
2021/12/29 12:34:58;;;;;;;;;;;;;;;9.31;100.00;97728.28;4917591;29;20217;-67
2021/12/29 12:37:36;;;;;;;;;;;;;;;9.05;100.00;97729.50;4916308;29;19948;-67
2021/12/29 12:40:12;;;;;;;;;;;;;;;9.03;100.00;97737.50;4917369;29;20659;-70
2021/12/29 12:42:40;;;;;;;;;;;;;;;9.05;100.00;97737.88;4915386;29;19949;-67
2021/12/29 12:45:21;;;;;;;;;;;;;;;9.04;100.00;97734.31;4918717;29;19965;-68
2021/12/29 12:47:49;;;;;;;;;;;;;;;8.99;100.00;97736.72;4917183;29;20364;-68
2021/12/29 12:50:24;;;;;;;;;;;;;;;8.83;100.00;97739.09;4916504;29;20355;-68
2021/12/29 12:52:53;;;;;;;;;;;;;;;8.69;100.00;97734.34;4914150;29;20543;-67
2021/12/29 12:55:20;;;;;;;;;;;;;;;8.64;100.00;97725.59;4916099;29;20282;-68
2021/12/29 12:57:50;;;;;;;;;;;;;;;8.44;100.00;97726.00;4915312;29;20414;-69
2021/12/29 13:00:19;;;;;;;;;;;;;;;8.37;100.00;97726.00;4915714;29;19958;-67
2021/12/29 13:02:47;;;;;;;;;;;;;;;8.30;100.00;97709.28;4916844;29;19951;-68
2021/12/29 13:05:16;;;;;;;;;;;;;;;8.25;100.00;97714.41;4917985;29;19949;-68
2021/12/29 13:07:51;;;;;;;;;;;;;;;8.11;100.00;97720.78;4917898;29;20383;-69
2021/12/29 13:10:23;;;;;;;;;;;;;;;8.02;100.00;97723.13;4917659;29;19959;-69
2021/12/29 13:12:57;;;;;;;;;;;;;;;7.92;100.00;97724.69;4914697;29;19951;-69
2021/12/29 13:15:26;;;;;;;;;;;;;;;7.88;100.00;97731.44;4916583;29;20357;-68
2021/12/29 13:17:53;;;;;;;;;;;;;;;7.99;100.00;97723.13;5120176;23;19980;-67
2021/12/29 13:20:20;;;;;;;;;;;;;;;7.91;100.00;97739.81;4916904;29;19948;-67
2021/12/29 13:22:48;;;;;;;;;;;;;;;7.91;100.00;97741.81;4916299;29;19959;-67
2021/12/29 13:25:22;;;;;;;;;;;;;;;7.55;100.00;97726.19;4901213;29;19960;-66
2021/12/29 13:28:01;;;;;;;;;;;;;;;7.32;100.00;97732.03;4908867;29;19978;-67
2021/12/29 13:30:36;;;;;;;;;;;;;;;7.13;100.00;97732.34;4908324;29;19956;-67
2021/12/29 13:33:04;;;;;;;;;;;;;;;6.92;100.00;97744.13;4921609;29;19957;-68
2021/12/29 13:35:35;;;;;;;;;;;;;;;6.89;100.00;97738.56;4921296;29;19954;-68
2021/12/29 13:38:04;;;;;;;;;;;;;;;6.79;100.00;97748.44;4921352;29;19958;-68
2021/12/29 13:40:42;;;;;;;;;;;;;;;6.79;100.00;97748.44;4920739;29;20381;-67
2021/12/29 13:43:12;;;;;;;;;;;;;;;6.57;100.00;97753.03;4920330;29;19954;-68
2021/12/29 13:45:40;;;;;;;;;;;;;;;6.59;100.00;97752.63;4920738;29;19961;-68
2021/12/29 13:48:15;;;;;;;;;;;;;;;6.49;100.00;97748.59;4932268;29;19974;-69
2021/12/29 13:51:09;;;;;;;;;;;;;;;6.24;100.00;97741.22;4920323;29;19948;-68
2021/12/29 13:53:38;;;;;;;;;;;;;;;5.93;100.00;97746.09;4915758;29;19960;-68
2021/12/29 13:56:06;;;;;;;;;;;;;;;5.99;100.00;97756.84;4918531;29;19949;-67
2021/12/29 13:58:34;;;;;;;;;;;;;;;5.92;100.00;97763.91;4922091;29;19956;-69
2021/12/29 14:01:03;;;;;;;;;;;;;;;5.79;100.00;97765.34;4919990;29;20273;-67
2021/12/29 14:03:31;;;;;;;;;;;;;;;5.82;100.00;97763.78;4920293;29;19954;-67
2021/12/29 14:06:00;;;;;;;;;;;;;;;5.78;100.00;97760.94;4911810;29;19960;-67
2021/12/29 14:08:29;;;;;;;;;;;;;;;5.75;100.00;97761.72;4920601;29;19979;-68
2021/12/29 14:10:57;;;;;;;;;;;;;;;5.62;100.00;97765.13;4923775;29;19954;-68
2021/12/29 14:13:29;;;;;;;;;;;;;;;5.53;100.00;97772.91;4927501;29;20032;-68
2021/12/29 14:16:02;;;;;;;;;;;;;;;5.54;100.00;97786.41;4916720;29;19953;-68
2021/12/29 14:18:29;;;;;;;;;;;;;;;5.48;100.00;97798.22;4920681;29;19972;-69
2021/12/29 14:21:09;;;;;;;;;;;;;;;5.60;100.00;97775.81;4919552;29;19953;-69
2021/12/29 14:23:37;;;;;;;;;;;;;;;5.45;100.00;97780.38;4918237;29;19955;-68
2021/12/29 14:26:09;;;;;;;;;;;;;;;5.60;100.00;97779.34;4919013;29;19952;-69
2021/12/29 14:28:36;;;;;;;;;;;;;;;5.56;100.00;97772.97;4920532;29;19966;-69
2021/12/29 14:31:08;;;;;;;;;;;;;;;5.55;100.00;97753.94;4920607;29;19954;-69
2021/12/29 14:33:39;;;;;;;;;;;;;;;5.41;100.00;97759.31;4921322;29;19957;-67
2021/12/29 14:36:11;;;;;;;;;;;;;;;5.44;100.00;97786.28;4919790;29;19951;-67
2021/12/29 14:38:39;;;;;;;;;;;;;;;5.48;100.00;97793.47;4918244;29;19957;-67
2021/12/29 14:41:18;;;;;;;;;;;;;;;5.46;100.00;97786.69;4916850;29;19962;-67
2021/12/29 14:43:56;;;;;;;;;;;;;;;5.41;100.00;97785.06;4916867;29;19950;-68
2021/12/29 14:46:24;;;;;;;;;;;;;;;5.45;100.00;97774.84;4920426;29;19954;-66
2021/12/29 14:48:56;;;;;;;;;;;;;;;5.57;100.00;97763.50;4919690;29;19973;-66
2021/12/29 14:51:24;;;;;;;;;;;;;;;5.44;100.00;97766.88;4903828;29;19951;-67
2021/12/29 14:53:53;;;;;;;;;;;;;;;5.42;100.00;97767.25;4918591;29;19957;-66
2021/12/29 14:56:24;;;;;;;;;;;;;;;5.48;100.00;97765.72;4919849;29;19950;-68
2021/12/29 14:58:52;;;;;;;;;;;;;;;5.33;100.00;97778.63;4918138;29;20058;-68
2021/12/29 15:01:23;;;;;;;;;;;;;;;5.32;100.00;97792.88;4914627;29;19949;-68
2021/12/29 15:03:55;;;;;;;;;;;;;;;5.28;100.00;97797.56;4919202;29;19961;-67
2021/12/29 15:06:34;;;;;;;;;;;;;;;5.35;100.00;97792.13;4902507;29;19949;-68
2021/12/29 15:09:04;;;;;;;;;;;;;;;5.36;100.00;97801.22;4918487;29;20638;-67
2021/12/29 15:11:32;;;;;;;;;;;;;;;5.38;100.00;97812.75;4914229;29;19954;-68
2021/12/29 15:13:59;;;;;;;;;;;;;;;5.36;100.00;97818.66;4919400;29;19957;-69
2021/12/29 15:16:26;;;;;;;;;;;;;;;5.37;100.00;97819.47;4907134;29;20346;-66
2021/12/29 15:18:54;;;;;;;;;;;;;;;5.44;100.00;97809.25;4915686;29;19998;-66
2021/12/29 15:21:23;;;;;;;;;;;;;;;5.45;100.00;97810.06;4907124;29;19966;-66
2021/12/29 15:23:51;;;;;;;;;;;;;;;5.42;100.00;97810.81;4906441;29;19957;-66
2021/12/29 15:26:19;;;;;;;;;;;;;;;5.41;100.00;97821.09;4918496;29;20380;-67
2021/12/29 15:28:48;;;;;;;;;;;;;;;5.35;100.00;97811.53;4919800;29;19969;-67
2021/12/29 15:31:16;;;;;;;;;;;;;;;5.35;100.00;97827.34;4916887;29;20347;-67
2021/12/29 15:33:46;;;;;;;;;;;;;;;5.25;100.00;97817.72;4920200;29;19950;-67
2021/12/29 15:36:13;;;;;;;;;;;;;;;5.14;100.00;97811.22;4918187;29;19960;-67
2021/12/29 15:38:41;;;;;;;;;;;;;;;5.06;100.00;97804.75;4915466;29;19968;-67
2021/12/29 15:41:11;;;;;;;;;;;;;;;4.97;100.00;97806.22;4919351;29;19958;-67
2021/12/29 15:43:40;;;;;;;;;;;;;;;4.88;100.00;97803.72;4918603;29;19947;-67
2021/12/29 15:46:09;;;;;;;;;;;;;;;4.91;100.00;97808.53;4900618;29;19957;-67
2021/12/29 15:48:50;;;;;;;;;;;;;;;4.98;100.00;97807.81;4915924;29;19971;-67
2021/12/29 15:51:17;;;;;;;;;;;;;;;4.95;100.00;97806.59;4917394;29;20555;-67
2021/12/29 15:53:45;;;;;;;;;;;;;;;4.97;100.00;97823.63;4913458;29;19955;-66
2021/12/29 15:56:16;;;;;;;;;;;;;;;4.93;100.00;97833.88;4886835;29;19962;-67
2021/12/29 15:58:44;;;;;;;;;;;;;;;4.88;100.00;97836.16;4917823;29;19954;-66
2021/12/29 16:01:11;;;;;;;;;;;;;;;4.87;100.00;97832.56;4914838;29;20403;-67
2021/12/29 16:03:39;;;;;;;;;;;;;;;4.81;100.00;97838.81;4917193;29;19951;-67
2021/12/29 16:06:06;;;;;;;;;;;;;;;4.71;100.00;97839.44;4918356;29;19959;-67
2021/12/29 16:08:34;;;;;;;;;;;;;;;4.71;100.00;97845.78;4916291;29;19970;-67
2021/12/29 16:11:01;;;;;;;;;;;;;;;4.70;100.00;97854.44;4917414;29;19954;-67
2021/12/29 16:13:28;;;;;;;;;;;;;;;4.70;100.00;97852.47;4917383;29;19963;-67
2021/12/29 16:15:56;;;;;;;;;;;;;;;4.73;100.00;97851.75;4917173;29;19959;-67
2021/12/29 16:18:23;;;;;;;;;;;;;;;4.74;100.00;97858.09;4914289;29;19975;-67
2021/12/29 16:20:50;;;;;;;;;;;;;;;4.82;100.00;97854.28;4916188;29;19954;-68
2021/12/29 16:23:18;;;;;;;;;;;;;;;4.78;100.00;97854.19;4921442;29;19957;-68
2021/12/29 16:25:45;;;;;;;;;;;;;;;4.85;100.00;97856.28;4913231;29;19951;-68
2021/12/29 16:28:28;;;;;;;;;;;;;;;4.83;100.00;97858.63;4906919;29;19948;-69
2021/12/29 16:30:56;;;;;;;;;;;;;;;4.76;100.00;97859.31;4918389;29;19954;-68
2021/12/29 16:33:23;;;;;;;;;;;;;;;4.76;100.00;97859.31;4917295;29;19950;-67
2021/12/29 16:35:50;;;;;;;;;;;;;;;4.74;100.00;97852.56;4917944;29;19958;-68
2021/12/29 16:38:18;;;;;;;;;;;;;;;4.71;100.00;97842.22;4917346;29;19950;-68
2021/12/29 16:40:46;;;;;;;;;;;;;;;4.67;100.00;97836.59;4915078;29;20357;-68
2021/12/29 16:43:13;;;;;;;;;;;;;;;4.69;100.00;97847.31;4913725;29;19962;-66
2021/12/29 16:45:40;;;;;;;;;;;;;;;4.54;100.00;97843.50;4915177;29;20571;-67
2021/12/29 16:48:08;;;;;;;;;;;;;;;4.45;100.00;97854.03;4912135;29;20039;-68
2021/12/29 16:50:36;;;;;;;;;;;;;;;4.41;100.00;97861.47;4915602;29;19967;-67
2021/12/29 16:53:03;;;;;;;;;;;;;;;4.38;100.00;97867.72;4917932;29;19968;-68
2021/12/29 16:55:30;;;;;;;;;;;;;;;4.34;100.00;97870.44;4917283;29;20355;-68
2021/12/29 16:57:58;;;;;;;;;;;;;;;4.24;100.00;97857.22;4915710;29;19984;-68
2021/12/29 17:00:25;;;;;;;;;;;;;;;4.03;100.00;97861.53;4914242;29;19955;-68
2021/12/29 17:02:54;;;;;;;;;;;;;;;3.92;100.00;97861.31;4919280;29;20236;-67
2021/12/29 17:05:22;;;;;;;;;;;;;;;3.90;100.00;97860.88;4921071;29;19955;-67
2021/12/29 17:07:49;;;;;;;;;;;;;;;3.95;100.00;97877.19;4912432;29;19969;-68
2021/12/29 17:10:16;;;;;;;;;;;;;;;3.99;100.00;97880.81;4921560;29;19967;-68
2021/12/29 17:12:44;;;;;;;;;;;;;;;4.02;100.00;97882.84;4921840;29;20046;-67
2021/12/29 17:15:12;;;;;;;;;;;;;;;4.05;100.00;97884.09;4918218;29;20486;-67
2021/12/29 17:17:40;;;;;;;;;;;;;;;4.01;100.00;97888.78;4918441;29;21260;-67
2021/12/29 17:20:08;;;;;;;;;;;;;;;3.79;100.00;97888.31;4921856;29;20038;-67
2021/12/29 17:22:36;;;;;;;;;;;;;;;3.61;100.00;97884.38;4921803;29;19963;-67
2021/12/29 17:25:06;;;;;;;;;;;;;;;3.65;100.00;97879.72;4920317;29;19950;-68
2021/12/29 17:27:33;;;;;;;;;;;;;;;3.76;100.00;97891.84;4918766;29;19969;-67
2021/12/29 17:30:02;;;;;;;;;;;;;;;3.72;100.00;97890.94;4919606;29;19970;-67
2021/12/29 17:32:30;;;;;;;;;;;;;;;3.67;100.00;97913.34;4919248;29;19949;-67
2021/12/29 17:34:58;;;;;;;;;;;;;;;3.72;100.00;97926.06;4917636;29;19961;-68
2021/12/29 17:37:25;;;;;;;;;;;;;;;3.76;100.00;97918.69;4920638;29;19958;-67
2021/12/29 17:39:54;;;;;;;;;;;;;;;3.78;100.00;97933.75;4919873;29;19953;-67
2021/12/29 17:42:21;;;;;;;;;;;;;;;3.78;100.00;97939.28;4920660;29;19957;-68
2021/12/29 17:44:48;;;;;;;;;;;;;;;3.79;100.00;97953.91;4916114;29;19965;-66
2021/12/29 17:47:16;;;;;;;;;;;;;;;3.88;100.00;97971.09;4898519;29;19959;-67
2021/12/29 17:49:43;;;;;;;;;;;;;;;3.95;100.00;97977.56;4916004;29;19967;-67
2021/12/29 17:52:11;;;;;;;;;;;;;;;4.03;100.00;97980.50;4920079;29;19946;-67
2021/12/29 17:54:38;;;;;;;;;;;;;;;4.02;100.00;97976.13;4920421;29;19954;-67
2021/12/29 17:57:06;;;;;;;;;;;;;;;4.00;100.00;97984.78;4921881;29;19955;-67
2021/12/29 17:59:33;;;;;;;;;;;;;;;3.99;100.00;97992.28;4917980;29;20239;-67
2021/12/29 18:02:00;;;;;;;;;;;;;;;4.00;100.00;97998.63;4920472;29;19962;-67
2021/12/29 18:04:28;;;;;;;;;;;;;;;4.07;100.00;98007.06;4916864;29;20259;-67
2021/12/29 18:06:55;;;;;;;;;;;;;;;4.04;100.00;98024.38;4914987;29;19957;-67
2021/12/29 18:09:22;;;;;;;;;;;;;;;4.17;100.00;98016.75;4919434;29;19972;-67
2021/12/29 18:11:52;;;;;;;;;;;;;;;4.06;100.00;98001.91;4919500;29;19961;-67
2021/12/29 18:14:20;;;;;;;;;;;;;;;4.03;100.00;98005.41;4913787;29;19952;-68
2021/12/29 18:16:48;;;;;;;;;;;;;;;3.93;100.00;98004.81;4923797;29;19959;-68
2021/12/29 18:19:17;;;;;;;;;;;;;;;3.91;100.00;97993.28;4918752;29;19976;-68
2021/12/29 18:21:45;;;;;;;;;;;;;;;3.89;100.00;97986.50;4910891;29;19954;-68
2021/12/29 18:24:14;;;;;;;;;;;;;;;3.81;100.00;97998.59;4918251;29;19960;-67
2021/12/29 18:26:42;;;;;;;;;;;;;;;3.77;100.00;97975.56;4912931;29;19958;-67
2021/12/29 18:29:10;;;;;;;;;;;;;;;3.77;100.00;97981.91;4910418;29;19953;-68
2021/12/29 18:31:37;;;;;;;;;;;;;;;3.95;100.00;97972.03;4918243;29;20256;-67
2021/12/29 18:34:05;;;;;;;;;;;;;;;3.88;100.00;97969.13;4919113;29;19959;-67
2021/12/29 18:36:33;;;;;;;;;;;;;;;3.76;100.00;97960.16;4909157;29;20251;-67
2021/12/29 18:39:00;;;;;;;;;;;;;;;3.76;100.00;97949.91;4916582;29;19948;-67
2021/12/29 18:41:28;;;;;;;;;;;;;;;3.81;100.00;97946.84;4920440;29;19962;-67
2021/12/29 18:43:55;;;;;;;;;;;;;;;3.74;100.00;97970.78;4917331;29;19953;-67
2021/12/29 18:46:23;;;;;;;;;;;;;;;3.69;100.00;97987.66;4916838;29;19970;-66
2021/12/29 18:48:51;;;;;;;;;;;;;;;3.67;100.00;98012.88;4908312;29;19969;-67
2021/12/29 18:51:18;;;;;;;;;;;;;;;3.78;100.00;98005.66;4906695;29;19982;-67
2021/12/29 18:53:46;;;;;;;;;;;;;;;3.74;100.00;98004.75;4915354;29;19951;-67
2021/12/29 18:56:13;;;;;;;;;;;;;;;3.63;100.00;98009.25;4918210;29;19964;-67
2021/12/29 18:58:40;;;;;;;;;;;;;;;3.66;100.00;98007.72;4918520;29;20369;-67
2021/12/29 19:01:08;;;;;;;;;;;;;;;3.61;100.00;98014.34;4914793;29;19952;-68
2021/12/29 19:03:35;;;;;;;;;;;;;;;3.57;100.00;98032.00;4918621;29;19952;-67
2021/12/29 19:06:05;;;;;;;;;;;;;;;3.62;100.00;98038.03;4917858;29;19970;-67
2021/12/29 19:08:33;;;;;;;;;;;;;;;3.65;100.00;98047.56;4914514;29;19959;-69
2021/12/29 19:11:01;;;;;;;;;;;;;;;3.67;100.00;98043.28;4905920;29;19967;-69
2021/12/29 19:13:28;;;;;;;;;;;;;;;3.72;100.00;98037.47;4916409;29;19960;-69
2021/12/29 19:15:55;;;;;;;;;;;;;;;3.67;100.00;98025.91;4914969;29;19964;-69
2021/12/29 19:18:23;;;;;;;;;;;;;;;3.64;100.00;98016.38;4917018;29;20309;-69
2021/12/29 19:20:50;;;;;;;;;;;;;;;3.75;100.00;98016.59;4918241;29;19984;-69
2021/12/29 19:23:18;;;;;;;;;;;;;;;3.60;100.00;98011.91;4917704;29;20345;-68
2021/12/29 19:25:45;;;;;;;;;;;;;;;3.58;100.00;98001.22;4912152;29;20296;-69
2021/12/29 19:28:17;;;;;;;;;;;;;;;3.60;100.00;97996.13;4914602;29;20188;-69
2021/12/29 19:30:49;;;;;;;;;;;;;;;3.70;100.00;98003.06;4911652;29;20000;-68
2021/12/29 19:33:17;;;;;;;;;;;;;;;3.75;100.00;98000.03;4916341;29;19950;-68
2021/12/29 19:35:45;;;;;;;;;;;;;;;3.79;100.00;97987.88;4917483;29;19955;-69
2021/12/29 19:38:15;;;;;;;;;;;;;;;3.82;100.00;97973.31;4916589;29;19957;-70
2021/12/29 19:40:44;;;;;;;;;;;;;;;3.86;100.00;97962.34;4918127;29;19958;-69
2021/12/29 19:43:12;;;;;;;;;;;;;;;3.88;100.00;97954.50;4907416;29;19949;-69
2021/12/29 19:45:40;;;;;;;;;;;;;;;3.88;100.00;97966.38;4917489;29;19958;-69
2021/12/29 19:48:07;;;;;;;;;;;;;;;3.90;100.00;97993.66;4914717;29;19958;-69
2021/12/29 19:50:37;;;;;;;;;;;;;;;3.85;100.00;97994.75;4915975;29;19968;-69